createdAt,value
2023-01-30T00:01:17.920Z,6.20
2023-01-30T00:03:45.828Z,5.90
2023-01-30T00:06:13.983Z,6.20
2023-01-30T00:08:41.679Z,5.30
2023-01-30T00:11:11.962Z,3.60
2023-01-30T00:13:40.347Z,6.70
2023-01-30T00:16:09.809Z,3.30
2023-01-30T00:18:38.317Z,4.00
2023-01-30T00:21:08.230Z,4.10
2023-01-30T00:23:36.869Z,3.40
2023-01-30T00:26:05.891Z,4.10
2023-01-30T00:28:33.944Z,5.50
2023-01-30T00:31:02.096Z,7.20
2023-01-30T00:33:30.399Z,8.30
2023-01-30T00:35:58.142Z,9.40
2023-01-30T00:38:25.992Z,11.20
2023-01-30T00:40:53.855Z,14.40
2023-01-30T00:43:40.983Z,12.40
2023-01-30T00:46:39.408Z,15.30
2023-01-30T00:49:07.152Z,14.20
2023-01-30T00:51:35.661Z,15.00
2023-01-30T00:54:03.973Z,15.40
2023-01-30T00:56:32.521Z,15.90
2023-01-30T00:59:00.435Z,15.10
2023-01-30T01:01:28.192Z,14.30
2023-01-30T01:03:55.950Z,14.00
2023-01-30T01:06:23.608Z,14.40
2023-01-30T01:08:51.459Z,20.70
2023-01-30T01:11:24.655Z,21.60
2023-01-30T01:13:54.950Z,16.70
2023-01-30T01:16:23.255Z,20.40
2023-01-30T01:18:51.566Z,19.00
2023-01-30T01:21:20.766Z,21.40
2023-01-30T01:23:52.523Z,17.60
2023-01-30T01:26:20.639Z,23.40
2023-01-30T01:28:48.421Z,18.90
2023-01-30T01:31:17.227Z,19.00
2023-01-30T01:33:45.085Z,19.30
2023-01-30T01:36:20.030Z,16.60
2023-01-30T01:38:57.411Z,18.80
2023-01-30T01:41:25.383Z,18.00
2023-01-30T01:44:06.617Z,20.10
2023-01-30T01:46:35.729Z,17.90
2023-01-30T01:49:07.698Z,17.40
2023-01-30T01:51:40.124Z,20.20
2023-01-30T01:54:07.758Z,16.70
2023-01-30T01:56:36.965Z,16.60
2023-01-30T01:59:12.781Z,18.30
2023-01-30T02:01:40.431Z,18.30
2023-01-30T02:04:11.055Z,17.30
2023-01-30T02:06:39.864Z,13.20
2023-01-30T02:09:08.854Z,18.20
2023-01-30T02:11:47.068Z,15.20
2023-01-30T02:14:15.812Z,16.70
2023-01-30T02:16:44.735Z,17.00
2023-01-30T02:19:38.059Z,17.20
2023-01-30T02:22:24.640Z,16.70
2023-01-30T02:25:04.379Z,14.50
2023-01-30T02:28:10.619Z,16.30
2023-01-30T02:30:41.071Z,17.50
2023-01-30T02:33:39.833Z,17.80
2023-01-30T02:36:13.335Z,15.40
2023-01-30T02:38:59.444Z,15.80
2023-01-30T02:41:30.632Z,18.10
2023-01-30T02:44:00.313Z,19.30
2023-01-30T02:46:59.189Z,14.60
2023-01-30T02:49:37.870Z,13.60
2023-01-30T02:52:08.613Z,14.50
2023-01-30T02:54:36.902Z,15.70
2023-01-30T02:57:23.273Z,16.00
2023-01-30T02:59:59.315Z,15.60
2023-01-30T03:03:07.133Z,16.50
2023-01-30T03:05:39.591Z,14.70
2023-01-30T03:08:29.054Z,16.70
2023-01-30T03:11:06.052Z,17.80
2023-01-30T03:14:03.218Z,18.50
2023-01-30T03:16:38.192Z,14.80
2023-01-30T03:19:10.801Z,15.80
2023-01-30T03:21:44.757Z,16.60
2023-01-30T03:24:13.496Z,17.90
2023-01-30T03:26:52.492Z,18.70
2023-01-30T03:29:20.774Z,16.10
2023-01-30T03:36:07.837Z,15.50
2023-01-30T03:38:36.930Z,20.30
2023-01-30T03:41:05.431Z,16.20
2023-01-30T03:43:33.714Z,18.60
2023-01-30T03:46:03.069Z,16.20
2023-01-30T03:48:31.147Z,15.90
2023-01-30T03:50:59.057Z,15.50
2023-01-30T03:53:26.750Z,16.30
2023-01-30T03:55:55.297Z,15.00
2023-01-30T03:58:26.528Z,17.50
2023-01-30T04:00:57.439Z,17.10
2023-01-30T04:03:26.481Z,13.80
2023-01-30T04:05:56.511Z,15.20
2023-01-30T04:08:24.170Z,14.10
2023-01-30T04:10:51.910Z,15.40
2023-01-30T04:13:19.750Z,15.40
2023-01-30T04:15:47.775Z,14.30
2023-01-30T04:18:21.240Z,11.50
2023-01-30T04:20:58.024Z,12.50
2023-01-30T04:23:31.392Z,12.80
2023-01-30T04:25:59.172Z,10.10
2023-01-30T04:28:27.853Z,15.20
2023-01-30T04:30:55.591Z,11.90
2023-01-30T04:33:47.348Z,12.60
2023-01-30T04:36:15.190Z,12.10
2023-01-30T04:38:43.579Z,13.90
2023-01-30T04:41:11.460Z,14.40
2023-01-30T04:43:41.333Z,14.10
2023-01-30T04:46:21.949Z,12.00
2023-01-30T04:48:49.755Z,14.00
2023-01-30T04:51:17.709Z,13.20
2023-01-30T04:53:48.976Z,14.50
2023-01-30T04:56:17.119Z,16.60
2023-01-30T04:58:45.376Z,13.20
2023-01-30T05:01:47.578Z,14.30
2023-01-30T05:04:15.443Z,12.90
2023-01-30T05:06:43.506Z,14.50
2023-01-30T05:09:12.803Z,16.00
2023-01-30T05:11:41.064Z,13.10
2023-01-30T05:14:09.046Z,14.70
2023-01-30T05:16:40.623Z,14.20
2023-01-30T05:19:10.743Z,16.50
2023-01-30T05:21:38.411Z,14.10
2023-01-30T05:24:06.700Z,14.30
2023-01-30T05:26:34.496Z,13.00
2023-01-30T05:29:02.781Z,13.30
2023-01-30T05:31:30.469Z,16.90
2023-01-30T05:33:58.346Z,11.80
2023-01-30T05:36:26.054Z,13.60
2023-01-30T05:38:54.020Z,12.70
2023-01-30T05:41:21.773Z,11.80
2023-01-30T05:43:50.783Z,12.20
2023-01-30T05:46:18.596Z,12.50
2023-01-30T05:48:46.469Z,11.70
2023-01-30T05:51:21.471Z,12.00
2023-01-30T05:53:49.491Z,12.10
2023-01-30T05:56:18.490Z,9.10
2023-01-30T05:58:53.951Z,9.50
2023-01-30T06:01:23.174Z,9.50
2023-01-30T06:03:51.344Z,11.20
2023-01-30T06:06:19.569Z,8.80
2023-01-30T06:08:47.827Z,9.10
2023-01-30T06:11:16.893Z,11.00
2023-01-30T06:13:44.789Z,9.70
2023-01-30T06:16:14.281Z,10.20
2023-01-30T06:18:42.081Z,12.60
2023-01-30T06:21:10.094Z,10.90
2023-01-30T06:23:38.937Z,11.70
2023-01-30T06:26:09.053Z,10.90
2023-01-30T06:28:37.447Z,12.10
2023-01-30T06:31:08.713Z,10.30
2023-01-30T06:33:36.886Z,10.60
2023-01-30T06:36:04.782Z,11.70
2023-01-30T06:38:32.524Z,9.90
2023-01-30T06:41:00.228Z,8.00
2023-01-30T06:43:27.915Z,9.90
2023-01-30T06:45:55.605Z,10.40
2023-01-30T06:48:23.396Z,9.70
2023-01-30T06:50:51.138Z,12.70
2023-01-30T06:53:18.804Z,12.00
2023-01-30T06:55:46.681Z,8.00
2023-01-30T06:58:15.025Z,11.30
2023-01-30T07:00:43.364Z,8.50
2023-01-30T07:03:16.507Z,7.10
2023-01-30T07:05:45.670Z,10.20
2023-01-30T07:08:14.089Z,8.60
2023-01-30T07:10:42.344Z,11.00
2023-01-30T07:13:10.257Z,8.70
2023-01-30T07:15:38.004Z,9.90
2023-01-30T07:18:05.875Z,9.40
2023-01-30T07:20:34.059Z,8.30
2023-01-30T07:23:01.933Z,7.80
2023-01-30T07:25:30.249Z,11.30
2023-01-30T07:28:00.184Z,12.50
2023-01-30T07:30:30.070Z,10.20
2023-01-30T07:32:59.457Z,12.00
2023-01-30T07:35:29.543Z,14.20
2023-01-30T07:37:57.300Z,10.90
2023-01-30T07:40:25.720Z,12.40
2023-01-30T07:43:13.513Z,12.30
2023-01-30T07:45:46.581Z,11.00
2023-01-30T07:48:16.678Z,9.70
2023-01-30T07:50:45.238Z,6.70
2023-01-30T07:53:15.852Z,9.50
2023-01-30T07:55:43.778Z,8.90
2023-01-30T07:58:13.905Z,8.00
2023-01-30T08:00:42.656Z,8.40
2023-01-30T08:03:17.073Z,9.70
2023-01-30T08:05:48.054Z,8.30
2023-01-30T08:08:15.866Z,6.50
2023-01-30T08:10:44.634Z,7.30
2023-01-30T08:13:12.343Z,8.30
2023-01-30T08:15:40.057Z,6.80
2023-01-30T08:18:07.754Z,8.10
2023-01-30T08:20:36.563Z,7.70
2023-01-30T08:23:04.885Z,6.20
2023-01-30T08:25:33.023Z,7.80
2023-01-30T08:28:00.816Z,9.20
2023-01-30T08:30:30.355Z,8.70
2023-01-30T08:32:58.471Z,9.40
2023-01-30T08:35:26.503Z,7.60
2023-01-30T08:37:54.274Z,9.50
2023-01-30T08:40:22.027Z,7.60
2023-01-30T08:42:49.689Z,4.50
2023-01-30T08:45:17.424Z,5.70
2023-01-30T08:47:45.225Z,8.10
2023-01-30T08:50:12.931Z,6.70
2023-01-30T08:52:40.787Z,5.40
2023-01-30T08:55:10.343Z,7.20
2023-01-30T08:57:38.038Z,5.70
2023-01-30T14:02:36.475Z,6.90
2023-01-30T14:05:06.064Z,5.60
2023-01-30T14:07:40.296Z,10.90
2023-01-30T14:10:10.793Z,6.80
2023-01-30T14:12:41.530Z,6.50
2023-01-30T14:15:32.070Z,6.50
2023-01-30T14:18:08.570Z,8.70
2023-01-30T14:20:39.029Z,3.60
2023-01-30T14:23:20.471Z,8.40
2023-01-30T14:25:53.055Z,7.80
2023-01-30T14:28:21.019Z,4.70
2023-01-30T14:30:53.235Z,5.10
2023-01-30T14:36:00.955Z,6.40
2023-01-30T14:38:30.767Z,3.30
2023-01-30T14:40:58.484Z,3.70
2023-01-30T14:43:26.257Z,3.20
2023-01-30T14:46:00.815Z,3.30
2023-01-30T14:48:32.191Z,4.30
2023-01-30T14:51:34.395Z,5.80
2023-01-30T14:54:06.593Z,4.60
2023-01-30T14:57:02.255Z,4.00
2023-01-30T14:59:36.992Z,3.70
2023-01-30T15:02:14.589Z,3.20
2023-01-30T15:04:52.944Z,6.20
2023-01-30T15:07:53.187Z,4.10
2023-01-30T15:10:33.953Z,5.60
2023-01-30T15:13:40.396Z,5.80
2023-01-30T15:16:23.492Z,3.90
2023-01-30T15:19:02.687Z,2.70
2023-01-30T15:22:12.348Z,6.70
2023-01-30T15:24:55.050Z,7.20
2023-01-30T15:30:29.977Z,3.10
2023-01-30T15:33:29.211Z,6.20
2023-01-30T15:35:58.487Z,4.50
2023-01-30T15:38:33.237Z,4.10
2023-01-30T15:41:03.477Z,5.40
2023-01-30T15:44:07.325Z,7.20
2023-01-30T15:47:12.703Z,4.30
2023-01-30T15:50:02.635Z,3.00
2023-01-30T15:52:40.063Z,4.50
2023-01-30T15:55:22.519Z,5.70
2023-01-30T16:00:32.324Z,6.80
2023-01-30T16:03:05.311Z,8.50
2023-01-30T16:05:33.146Z,5.60
2023-01-30T16:08:10.623Z,4.60
2023-01-30T16:10:47.559Z,5.20
2023-01-30T16:13:15.697Z,5.40
2023-01-30T16:16:14.357Z,2.00
2023-01-30T16:18:48.375Z,2.70
2023-01-30T16:21:22.543Z,4.90
2023-01-30T16:24:01.711Z,8.80
2023-01-30T16:26:36.946Z,8.80
2023-01-30T16:29:19.353Z,6.20
2023-01-30T16:31:49.596Z,9.80
2023-01-30T16:34:39.703Z,5.60
2023-01-30T16:37:31.419Z,4.90
2023-01-30T16:40:11.616Z,7.70
2023-01-30T16:42:40.113Z,4.90
2023-01-30T16:45:10.752Z,9.40
2023-01-30T16:47:39.108Z,6.10
2023-01-30T16:50:18.425Z,6.80
2023-01-30T16:52:51.682Z,9.30
2023-01-30T16:55:27.650Z,4.80
2023-01-30T16:57:58.860Z,5.20
2023-01-30T17:00:33.176Z,3.50
2023-01-30T17:03:04.525Z,6.90
2023-01-30T17:05:43.645Z,4.10
2023-01-30T17:08:47.153Z,8.30
2023-01-30T17:11:31.817Z,5.30
2023-01-30T17:14:19.118Z,7.20
2023-01-30T17:17:08.948Z,6.80
2023-01-30T17:19:37.305Z,4.80
2023-01-30T17:22:09.138Z,5.50
2023-01-30T17:43:44.566Z,5.80
2023-01-30T17:47:11.815Z,6.80
2023-01-30T17:49:56.791Z,7.40
2023-01-30T17:52:46.127Z,5.60
2023-01-30T17:58:52.359Z,3.90
2023-01-30T18:04:28.273Z,1.20
2023-01-30T18:22:44.435Z,4.40
2023-01-30T18:25:24.484Z,2.60
2023-01-30T18:28:38.981Z,1.90
2023-01-30T18:32:06.092Z,2.80
2023-01-30T18:34:40.719Z,0.80
2023-01-30T18:37:13.471Z,3.60
2023-01-30T18:39:42.936Z,7.40
2023-01-30T18:42:17.700Z,3.20
2023-01-30T18:44:51.821Z,2.60
2023-01-30T18:47:21.709Z,2.00
2023-01-30T18:49:53.220Z,1.90
2023-01-30T18:52:42.231Z,1.50
2023-01-30T18:55:29.958Z,2.40
2023-01-30T18:58:01.478Z,1.90
2023-01-30T19:00:46.457Z,2.10
2023-01-30T19:04:00.398Z,2.80
2023-01-30T19:07:27.145Z,2.20
2023-01-30T19:09:59.706Z,2.30
2023-01-30T19:19:52.435Z,3.50
2023-01-30T19:56:37.410Z,7.70
2023-01-30T19:59:05.510Z,6.70
2023-01-30T20:01:37.018Z,6.00
2023-01-30T20:04:05.323Z,4.30
2023-01-30T20:06:34.746Z,3.70
2023-01-30T20:09:07.669Z,6.50
2023-01-30T20:11:36.920Z,2.00
2023-01-30T20:14:06.884Z,3.80
2023-01-30T20:16:35.760Z,5.10
2023-01-30T20:19:09.155Z,4.70
2023-01-30T20:21:36.903Z,4.30
2023-01-30T20:24:05.319Z,2.70
2023-01-30T20:26:35.865Z,2.30
2023-01-30T20:29:04.460Z,2.30
2023-01-30T20:31:34.556Z,4.80
2023-01-30T20:34:04.112Z,2.30
2023-01-30T20:36:32.361Z,5.40
2023-01-30T20:39:04.096Z,3.40
2023-01-30T20:44:01.589Z,4.30
2023-01-30T20:46:32.076Z,6.70
2023-01-30T20:49:01.455Z,3.50
2023-01-30T20:51:31.465Z,6.50
2023-01-30T20:54:05.424Z,2.50
2023-01-30T20:56:40.106Z,4.80
2023-01-30T20:59:08.956Z,3.70
2023-01-30T21:01:37.442Z,6.00
2023-01-30T21:04:07.486Z,2.70
2023-01-30T21:06:41.089Z,4.60
2023-01-30T21:09:15.506Z,5.30
2023-01-30T21:11:43.983Z,5.20
2023-01-30T21:14:11.988Z,3.20
2023-01-30T21:16:39.991Z,6.70
2023-01-30T21:19:13.803Z,4.00
2023-01-30T21:21:50.571Z,4.70
2023-01-30T21:24:27.437Z,5.20
2023-01-30T21:26:55.713Z,5.30
2023-01-30T21:29:25.327Z,2.00
2023-01-30T21:31:54.146Z,4.40
2023-01-30T21:34:22.497Z,5.90
2023-01-30T21:37:09.433Z,4.50
2023-01-30T21:39:55.978Z,6.80
2023-01-30T21:42:42.439Z,5.80
2023-01-30T21:45:10.414Z,4.90
2023-01-30T21:47:38.843Z,6.90
2023-01-30T21:50:07.361Z,5.60
2023-01-30T21:52:35.039Z,3.20
2023-01-30T21:55:02.751Z,5.10
2023-01-30T21:57:30.496Z,9.20
2023-01-30T21:59:58.161Z,6.40
2023-01-30T22:02:25.988Z,3.80
2023-01-30T22:04:53.684Z,4.90
2023-01-30T22:07:21.444Z,3.80
2023-01-30T22:09:49.205Z,4.20
2023-01-30T22:12:16.972Z,4.70
2023-01-30T22:14:44.625Z,5.50
2023-01-30T22:17:12.344Z,3.80
2023-01-30T22:19:40.759Z,6.60
2023-01-30T22:22:08.555Z,6.50
2023-01-30T22:24:36.417Z,2.20
2023-01-30T22:27:04.391Z,8.50
2023-01-30T22:29:32.384Z,5.40
2023-01-30T22:32:00.108Z,10.70
2023-01-30T22:34:27.868Z,6.00
2023-01-30T22:36:55.615Z,4.00
2023-01-30T22:39:23.540Z,3.80
2023-01-30T22:41:51.255Z,5.50
2023-01-30T22:44:18.995Z,6.90
2023-01-30T22:46:46.707Z,5.70
2023-01-30T22:49:14.445Z,7.50
2023-01-30T22:51:43.603Z,8.80
2023-01-30T22:54:16.487Z,7.20
2023-01-30T22:56:46.785Z,10.30
2023-01-30T22:59:15.143Z,12.00
2023-01-30T23:01:45.475Z,11.20
2023-01-30T23:04:18.610Z,11.10
2023-01-30T23:06:47.937Z,12.10
2023-01-30T23:09:19.414Z,15.20
2023-01-30T23:12:11.801Z,9.30
2023-01-30T23:14:40.501Z,14.10
2023-01-30T23:17:27.471Z,12.20
2023-01-30T23:19:55.356Z,9.50
2023-01-30T23:22:23.343Z,8.50
2023-01-30T23:24:51.510Z,15.90
2023-01-30T23:27:20.413Z,6.00
2023-01-30T23:29:48.289Z,6.20
2023-01-30T23:32:19.879Z,11.90
2023-01-30T23:34:47.847Z,9.50
2023-01-30T23:37:16.321Z,6.30
2023-01-30T23:39:44.586Z,8.60
2023-01-30T23:42:12.304Z,8.90
2023-01-30T23:44:40.199Z,8.30
2023-01-30T23:47:07.891Z,4.60
2023-01-30T23:49:35.567Z,12.30
2023-01-30T23:52:03.306Z,7.30
2023-01-30T23:54:30.996Z,12.10
2023-01-30T23:56:58.660Z,8.80
2023-01-30T23:59:26.322Z,12.20
